createdAt,value
2019-04-25T00:00:48.325Z,89.8695
2019-04-25T00:01:52.325Z,89.8314
2019-04-25T00:02:55.318Z,89.8375
2019-04-25T00:03:58.320Z,90.0069
2019-04-25T00:05:01.367Z,90.1305
2019-04-25T00:06:06.333Z,90.4723
2019-04-25T00:07:09.273Z,90.5730
2019-04-25T00:08:12.359Z,90.6874
2019-04-25T00:09:15.307Z,90.6157
2019-04-25T00:10:18.305Z,90.5013
2019-04-25T00:11:21.613Z,90.5226
2019-04-25T00:12:24.317Z,90.3868
2019-04-25T00:13:27.295Z,90.2678
2019-04-25T00:14:31.483Z,90.3181
2019-04-25T00:15:34.312Z,90.1717
2019-04-25T00:16:37.267Z,90.0328
2019-04-25T00:17:41.953Z,90.0389
2019-04-25T00:18:45.264Z,90.0160
2019-04-25T00:19:48.563Z,90.2998
2019-04-25T00:20:52.208Z,90.2296
2019-04-25T00:21:55.290Z,90.3532
2019-04-25T00:22:58.349Z,90.4723
2019-04-25T00:24:02.636Z,90.5287
2019-04-25T00:25:14.993Z,90.6615
2019-04-25T00:26:13.269Z,90.7423
2019-04-25T00:27:16.285Z,90.9072
2019-04-25T00:28:19.304Z,91.0140
2019-04-25T00:29:22.308Z,90.7240
2019-04-25T00:30:25.281Z,90.6645
2019-04-25T00:31:28.270Z,90.7881
2019-04-25T00:32:31.610Z,90.5745
2019-04-25T00:33:33.290Z,90.5058
2019-04-25T00:34:36.299Z,90.4646
2019-04-25T00:35:39.280Z,90.4738
2019-04-25T00:36:43.505Z,90.8248
2019-04-25T00:37:47.790Z,90.9026
2019-04-25T00:38:52.314Z,91.1833
2019-04-25T00:39:56.281Z,91.2474
2019-04-25T00:40:59.269Z,91.2825
2019-04-25T00:42:02.512Z,91.2734
2019-04-25T00:43:05.297Z,91.3481
2019-04-25T00:44:08.295Z,91.2886
2019-04-25T00:45:11.917Z,91.5221
2019-04-25T00:46:17.301Z,91.5984
2019-04-25T00:47:21.629Z,91.4809
2019-04-25T00:48:23.345Z,91.5160
2019-04-25T00:49:26.283Z,91.2779
2019-04-25T00:50:29.323Z,90.9667
2019-04-25T00:51:32.281Z,91.0948
2019-04-25T00:52:35.298Z,91.1788
2019-04-25T00:53:38.297Z,91.2337
2019-04-25T00:54:42.240Z,91.2840
2019-04-25T00:55:46.480Z,91.2459
2019-04-25T00:56:49.398Z,91.3848
2019-04-25T00:57:52.809Z,91.2749
2019-04-25T00:58:56.290Z,91.3481
2019-04-25T00:59:59.303Z,91.4260
2019-04-25T01:01:02.285Z,91.3298
2019-04-25T01:02:07.565Z,91.2917
2019-04-25T01:03:09.353Z,91.3344
2019-04-25T01:04:12.325Z,91.4260
2019-04-25T01:05:15.303Z,91.4931
2019-04-25T01:06:18.281Z,91.4931
2019-04-25T01:07:22.377Z,91.2459
2019-04-25T01:08:25.339Z,90.9773
2019-04-25T01:09:28.325Z,90.8766
2019-04-25T01:10:31.613Z,91.0597
2019-04-25T01:11:34.290Z,91.1955
2019-04-25T01:12:37.305Z,91.2596
2019-04-25T01:13:39.285Z,91.0307
2019-04-25T01:14:42.301Z,90.8995
2019-04-25T01:15:45.271Z,90.7332
2019-04-25T01:16:48.616Z,90.7622
2019-04-25T01:17:51.519Z,90.7835
2019-04-25T01:18:55.600Z,90.9300
2019-04-25T01:19:58.286Z,91.1833
2019-04-25T01:21:01.266Z,91.2566
2019-04-25T01:22:04.306Z,91.1833
2019-04-25T01:23:07.294Z,91.1910
2019-04-25T01:24:10.283Z,91.0491
2019-04-25T01:25:13.776Z,91.1421
2019-04-25T01:26:17.308Z,91.1147
2019-04-25T01:27:20.282Z,91.2551
2019-04-25T01:28:24.318Z,91.3252
2019-04-25T01:29:27.275Z,91.4946
2019-04-25T01:30:30.275Z,91.4748
2019-04-25T01:31:33.643Z,91.4015
2019-04-25T01:32:36.281Z,91.2047
2019-04-25T01:33:39.330Z,91.3558
2019-04-25T01:34:44.146Z,91.4031
2019-04-25T01:35:47.281Z,91.3375
2019-04-25T01:36:50.764Z,91.2108
2019-04-25T01:37:55.272Z,91.0964
2019-04-25T01:38:59.301Z,90.8797
2019-04-25T01:40:04.014Z,90.7347
2019-04-25T01:41:07.298Z,90.5928
2019-04-25T01:42:10.289Z,90.5135
2019-04-25T01:43:13.749Z,90.5364
2019-04-25T01:44:17.306Z,90.5013
2019-04-25T01:45:20.314Z,90.5516
2019-04-25T01:46:24.285Z,90.5241
2019-04-25T01:47:27.339Z,90.6508
2019-04-25T01:48:30.283Z,90.5974
2019-04-25T01:49:33.957Z,90.6645
2019-04-25T01:50:37.301Z,90.8034
2019-04-25T01:51:40.309Z,90.6142
2019-04-25T01:52:43.481Z,90.7195
2019-04-25T01:53:46.285Z,90.7118
2019-04-25T01:54:49.360Z,90.7988
2019-04-25T01:56:00.954Z,90.7073
2019-04-25T01:57:00.318Z,90.5928
2019-04-25T01:58:03.855Z,90.6065
2019-04-25T01:59:07.287Z,90.5013
2019-04-25T02:00:09.314Z,90.5043
2019-04-25T02:01:12.258Z,90.4768
2019-04-25T02:02:15.297Z,90.4540
2019-04-25T02:03:17.289Z,90.4601
2019-04-25T02:04:20.331Z,90.5730
2019-04-25T02:05:23.779Z,90.5272
2019-04-25T02:06:26.320Z,90.3212
2019-04-25T02:07:29.273Z,90.3777
2019-04-25T02:08:33.873Z,90.4509
2019-04-25T02:09:37.297Z,90.3853
2019-04-25T02:10:40.352Z,90.4097
2019-04-25T02:11:43.943Z,90.3593
2019-04-25T02:12:47.307Z,90.4234
2019-04-25T02:13:51.272Z,90.3578
2019-04-25T02:14:55.497Z,90.3487
2019-04-25T02:15:59.310Z,90.3899
2019-04-25T02:17:02.898Z,90.4189
2019-04-25T02:18:07.321Z,90.2159
2019-04-25T02:19:10.288Z,90.1930
2019-04-25T02:20:14.007Z,90.1808
2019-04-25T02:21:17.288Z,90.2129
2019-04-25T02:22:20.316Z,90.4097
2019-04-25T02:23:24.073Z,90.3075
2019-04-25T02:24:27.297Z,90.2861
2019-04-25T02:25:30.336Z,90.2769
2019-04-25T02:26:34.038Z,90.3365
2019-04-25T02:27:37.342Z,90.1991
2019-04-25T02:28:40.318Z,90.2357
2019-04-25T02:29:44.686Z,90.0603
2019-04-25T02:30:48.342Z,90.0984
2019-04-25T02:31:51.335Z,90.1427
2019-04-25T02:32:58.400Z,89.9916
2019-04-25T02:34:04.643Z,89.8695
2019-04-25T02:35:10.324Z,89.9886
2019-04-25T02:36:15.026Z,90.0328
2019-04-25T02:37:18.313Z,90.1198
2019-04-25T02:38:21.305Z,90.3227
2019-04-25T02:39:24.625Z,90.2846
2019-04-25T02:40:27.358Z,90.5379
2019-04-25T02:41:30.323Z,90.4540
2019-04-25T02:42:34.392Z,90.4234
2019-04-25T02:43:37.321Z,90.3487
2019-04-25T02:44:40.293Z,90.4372
2019-04-25T02:45:44.256Z,90.4723
2019-04-25T02:46:47.317Z,90.5791
2019-04-25T02:47:50.303Z,90.4921
2019-04-25T02:48:56.219Z,90.4768
2019-04-25T02:50:00.893Z,90.5562
2019-04-25T02:51:07.172Z,90.4738
2019-04-25T02:52:12.873Z,90.2266
2019-04-25T02:53:17.302Z,90.2800
2019-04-25T02:54:20.335Z,90.3166
2019-04-25T02:55:34.019Z,90.3456
2019-04-25T02:56:37.690Z,90.4265
2019-04-25T02:57:39.311Z,90.4997
2019-04-25T02:58:44.147Z,90.4860
2019-04-25T02:59:47.279Z,90.6645
2019-04-25T03:00:57.409Z,90.7011
2019-04-25T03:01:58.995Z,90.6691
2019-04-25T03:03:03.382Z,90.6142
2019-04-25T03:04:10.993Z,90.5180
2019-04-25T03:05:14.517Z,90.4448
2019-04-25T03:06:16.304Z,90.4677
2019-04-25T03:07:19.378Z,90.4952
2019-04-25T03:08:24.250Z,90.5791
2019-04-25T03:09:27.310Z,90.5287
2019-04-25T03:10:29.323Z,90.5684
2019-04-25T03:11:32.281Z,90.5333
2019-04-25T03:12:36.794Z,90.5867
2019-04-25T03:13:40.290Z,90.5562
2019-04-25T03:14:44.645Z,90.6294
2019-04-25T03:15:48.311Z,90.6844
2019-04-25T03:16:51.315Z,90.6477
2019-04-25T03:17:54.775Z,90.7515
2019-04-25T03:18:59.424Z,90.8248
2019-04-25T03:20:06.707Z,90.7057
2019-04-25T03:21:14.201Z,90.6966
2019-04-25T03:22:18.299Z,90.7439
2019-04-25T03:23:21.312Z,90.7713
2019-04-25T03:24:25.080Z,90.8751
2019-04-25T03:25:28.298Z,91.0033
2019-04-25T03:26:39.725Z,91.1879
2019-04-25T03:27:39.309Z,91.0216
2019-04-25T03:28:43.741Z,90.9133
2019-04-25T03:29:47.289Z,91.1147
2019-04-25T03:30:50.340Z,91.1055
2019-04-25T03:31:56.146Z,90.8766
2019-04-25T03:33:01.035Z,90.9178
2019-04-25T03:34:09.360Z,90.9636
2019-04-25T03:35:14.327Z,91.0353
2019-04-25T03:36:17.328Z,90.9483
2019-04-25T03:37:20.265Z,90.8858
2019-04-25T03:38:24.257Z,90.7286
2019-04-25T03:39:27.283Z,90.7515
2019-04-25T03:40:30.338Z,90.8675
2019-04-25T03:41:34.119Z,90.5745
2019-04-25T03:42:37.309Z,90.6752
2019-04-25T03:43:40.288Z,90.8934
2019-04-25T03:44:43.807Z,90.8660
2019-04-25T03:45:46.304Z,90.7195
2019-04-25T03:46:49.336Z,90.8110
2019-04-25T03:47:53.167Z,90.7988
2019-04-25T03:48:56.279Z,90.6065
2019-04-25T03:49:59.316Z,90.3532
2019-04-25T03:51:02.858Z,90.4814
2019-04-25T03:52:08.280Z,90.4265
2019-04-25T03:53:12.094Z,90.6157
2019-04-25T03:54:15.310Z,90.4860
2019-04-25T03:55:18.293Z,90.6203
2019-04-25T03:56:21.349Z,90.7256
2019-04-25T03:57:24.270Z,90.4784
2019-04-25T03:58:27.280Z,90.5058
2019-04-25T03:59:30.317Z,90.6050
2019-04-25T04:00:34.202Z,90.6874
2019-04-25T04:01:39.339Z,90.7195
2019-04-25T04:02:44.100Z,90.7576
2019-04-25T04:03:47.311Z,91.0307
2019-04-25T04:04:50.280Z,91.2474
2019-04-25T04:05:53.992Z,91.0582
2019-04-25T04:06:57.341Z,91.1376
2019-04-25T04:07:59.454Z,91.2016
2019-04-25T04:09:03.703Z,91.1559
2019-04-25T04:10:06.645Z,91.0811
2019-04-25T04:11:10.138Z,91.1177
2019-04-25T04:12:14.775Z,91.2657
2019-04-25T04:13:17.319Z,91.2154
2019-04-25T04:14:20.317Z,91.3283
2019-04-25T04:15:25.096Z,91.2657
2019-04-25T04:16:28.274Z,91.0353
2019-04-25T04:17:31.345Z,90.9987
2019-04-25T04:18:34.012Z,91.2322
2019-04-25T04:19:37.289Z,91.0811
2019-04-25T04:20:40.310Z,91.0231
2019-04-25T04:21:43.336Z,90.9941
2019-04-25T04:22:46.338Z,91.0536
2019-04-25T04:23:49.266Z,91.0765
2019-04-25T04:24:53.685Z,91.0918
2019-04-25T04:25:57.295Z,91.0033
2019-04-25T04:27:03.631Z,90.6966
2019-04-25T04:28:08.350Z,90.8110
2019-04-25T04:29:12.090Z,90.8949
2019-04-25T04:30:15.388Z,90.5730
2019-04-25T04:31:18.277Z,90.5135
2019-04-25T04:32:21.344Z,90.6416
2019-04-25T04:33:31.754Z,90.7011
2019-04-25T04:34:33.745Z,90.6325
2019-04-25T04:35:37.294Z,90.6416
2019-04-25T04:36:40.331Z,90.7515
2019-04-25T04:37:43.297Z,90.5608
2019-04-25T04:38:46.358Z,90.6935
2019-04-25T04:39:49.295Z,90.6615
2019-04-25T04:40:52.291Z,90.6416
2019-04-25T04:41:55.508Z,90.7469
2019-04-25T04:42:58.302Z,90.6096
2019-04-25T04:44:01.304Z,90.6020
2019-04-25T04:45:04.275Z,90.2983
2019-04-25T04:46:08.556Z,90.4280
2019-04-25T04:47:12.033Z,90.4906
2019-04-25T04:48:15.543Z,90.2678
2019-04-25T04:49:18.491Z,90.2403
2019-04-25T04:50:21.323Z,90.0465
2019-04-25T04:51:24.299Z,90.1289
2019-04-25T04:52:27.311Z,89.8909
2019-04-25T04:53:30.302Z,89.8039
2019-04-25T04:54:34.430Z,89.7353
2019-04-25T04:55:37.331Z,89.5750
2019-04-25T04:56:40.278Z,89.6208
2019-04-25T04:57:44.778Z,89.2454
2019-04-25T04:58:48.308Z,89.1783
2019-04-25T04:59:51.343Z,89.0852
2019-04-25T05:00:54.284Z,88.8563
2019-04-25T05:01:57.304Z,88.8029
2019-04-25T05:03:00.342Z,88.7144
2019-04-25T05:04:03.962Z,88.6824
2019-04-25T05:05:07.304Z,88.6244
2019-04-25T05:06:10.924Z,88.3253
2019-04-25T05:07:15.305Z,88.3757
2019-04-25T05:08:19.309Z,88.4825
2019-04-25T05:09:23.787Z,88.2307
2019-04-25T05:10:27.272Z,88.2811
2019-04-25T05:11:30.298Z,88.1422
2019-04-25T05:12:33.935Z,87.9973
2019-04-25T05:13:37.305Z,87.9637
2019-04-25T05:14:40.335Z,87.9423
2019-04-25T05:15:44.587Z,87.9545
2019-04-25T05:16:49.481Z,87.6356
2019-04-25T05:17:54.000Z,87.4067
2019-04-25T05:18:57.328Z,87.3457
2019-04-25T05:20:00.290Z,87.0817
2019-04-25T05:21:04.250Z,86.9444
2019-04-25T05:22:07.310Z,86.7842
2019-04-25T05:23:09.342Z,86.8482
2019-04-25T05:24:13.468Z,86.3401
2019-04-25T05:25:19.152Z,86.4668
2019-04-25T05:26:24.666Z,86.1830
2019-04-25T05:27:35.754Z,85.9037
2019-04-25T05:28:36.372Z,86.1051
2019-04-25T05:29:39.312Z,86.1387
2019-04-25T05:30:43.598Z,86.0502
2019-04-25T05:31:46.318Z,85.9358
2019-04-25T05:32:49.381Z,85.7710
2019-04-25T05:33:53.660Z,85.4658
2019-04-25T05:34:57.331Z,85.2369
2019-04-25T05:36:00.312Z,85.3361
2019-04-25T05:37:03.835Z,84.9714
2019-04-25T05:38:07.317Z,84.8325
2019-04-25T05:39:10.288Z,84.7105
2019-04-25T05:40:14.721Z,84.6037
2019-04-25T05:41:20.229Z,84.6494
2019-04-25T05:42:24.809Z,84.8341
2019-04-25T05:43:28.274Z,84.6082
2019-04-25T05:44:31.357Z,84.2985
2019-04-25T05:45:34.308Z,84.6586
2019-04-25T05:46:37.283Z,84.5945
2019-04-25T05:47:40.336Z,83.9811
2019-04-25T05:48:43.853Z,84.0772
2019-04-25T05:49:47.344Z,84.0970
2019-04-25T05:50:50.276Z,84.4129
2019-04-25T05:51:53.890Z,84.1413
2019-04-25T05:52:56.316Z,84.2435
2019-04-25T05:53:59.324Z,83.8987
2019-04-25T05:55:03.860Z,83.9323
2019-04-25T05:56:07.298Z,83.5615
2019-04-25T05:57:10.339Z,83.1479
2019-04-25T05:58:13.822Z,83.2990
2019-04-25T05:59:18.024Z,83.3356
2019-04-25T06:00:21.320Z,82.6322
2019-04-25T06:01:24.974Z,82.8687
2019-04-25T06:02:29.305Z,83.0930
2019-04-25T06:03:33.803Z,83.2227
2019-04-25T06:04:37.310Z,82.8702
2019-04-25T06:05:40.332Z,82.5849
2019-04-25T06:06:44.614Z,82.8107
2019-04-25T06:07:47.289Z,82.6230
2019-04-25T06:08:50.345Z,82.5757
2019-04-25T06:09:54.527Z,82.1103
2019-04-25T06:10:58.348Z,82.0096
2019-04-25T06:12:01.314Z,82.0554
2019-04-25T06:13:04.312Z,82.2095
2019-04-25T06:14:07.337Z,82.2690
2019-04-25T06:15:10.308Z,82.4979
2019-04-25T06:16:13.509Z,82.0859
2019-04-25T06:17:15.323Z,81.6968
2019-04-25T06:18:19.752Z,81.5518
2019-04-25T06:19:25.186Z,81.3962
2019-04-25T06:20:28.329Z,81.3733
2019-04-25T06:21:31.866Z,80.9689
2019-04-25T06:22:36.332Z,81.4817
2019-04-25T06:23:39.306Z,81.4679
2019-04-25T06:24:42.327Z,81.2726
2019-04-25T06:25:45.322Z,80.9232
2019-04-25T06:26:48.324Z,81.0330
2019-04-25T06:27:57.307Z,80.3845
2019-04-25T06:28:59.918Z,80.1083
2019-04-25T06:30:04.390Z,80.2930
2019-04-25T06:31:10.129Z,79.8154
2019-04-25T06:32:14.210Z,80.0443
2019-04-25T06:33:17.357Z,79.5514
2019-04-25T06:34:21.345Z,79.3210
2019-04-25T06:35:25.858Z,79.4278
2019-04-25T06:36:29.316Z,78.7182
2019-04-25T06:37:33.637Z,78.5977
2019-04-25T06:38:37.387Z,78.6114
2019-04-25T06:39:40.308Z,78.8006
2019-04-25T06:40:43.773Z,78.6770
2019-04-25T06:41:47.349Z,78.8312
2019-04-25T06:42:49.327Z,79.1028
2019-04-25T06:43:53.988Z,79.0921
2019-04-25T06:44:57.314Z,78.7167
2019-04-25T06:46:00.335Z,78.4146
2019-04-25T06:47:03.437Z,78.3185
2019-04-25T06:48:06.304Z,78.5351
2019-04-25T06:49:09.337Z,78.7213
2019-04-25T06:50:13.663Z,78.9792
2019-04-25T06:51:18.321Z,78.6984
2019-04-25T06:52:21.610Z,78.8190
2019-04-25T06:53:26.040Z,78.9380
2019-04-25T06:54:30.365Z,78.6450
2019-04-25T06:55:34.290Z,79.0021
2019-04-25T06:56:37.278Z,79.1119
2019-04-25T06:57:40.316Z,79.0799
2019-04-25T06:58:43.858Z,78.8815
2019-04-25T06:59:46.360Z,78.4878
2019-04-25T07:00:58.059Z,77.6638
2019-04-25T07:01:57.303Z,77.9065
2019-04-25T07:02:59.353Z,78.0819
2019-04-25T07:04:01.461Z,77.7325
2019-04-25T07:05:05.396Z,77.2854
2019-04-25T07:06:10.300Z,77.2213
2019-04-25T07:07:14.961Z,77.3220
2019-04-25T07:08:18.311Z,77.4166
2019-04-25T07:09:24.172Z,77.7249
2019-04-25T07:10:29.504Z,76.8994
2019-04-25T07:11:32.972Z,77.0367
2019-04-25T07:12:38.305Z,77.1191
2019-04-25T07:13:41.306Z,77.0520
2019-04-25T07:14:44.295Z,76.7315
2019-04-25T07:15:47.309Z,76.8765
2019-04-25T07:16:50.318Z,76.0586
2019-04-25T07:17:54.027Z,76.0769
2019-04-25T07:18:57.371Z,75.9442
2019-04-25T07:20:00.328Z,74.8699
2019-04-25T07:21:03.409Z,74.8165
2019-04-25T07:22:06.290Z,75.7382
2019-04-25T07:23:09.309Z,75.7382
2019-04-25T07:24:14.124Z,76.0494
2019-04-25T07:25:17.287Z,75.4711
2019-04-25T07:26:19.352Z,74.8287
2019-04-25T07:27:23.688Z,73.6797
2019-04-25T07:28:30.829Z,73.1411
2019-04-25T07:29:34.869Z,73.6477
2019-04-25T07:30:49.968Z,73.7987
2019-04-25T07:31:47.291Z,72.6513
2019-04-25T07:32:50.304Z,72.8511
2019-04-25T07:33:55.300Z,73.3410
2019-04-25T07:34:58.371Z,73.1212
2019-04-25T07:36:01.275Z,73.2830
2019-04-25T07:37:04.315Z,72.7886
2019-04-25T07:38:07.299Z,72.7459
2019-04-25T07:39:10.738Z,72.2698
2019-04-25T07:40:14.323Z,72.6055
2019-04-25T07:41:17.332Z,72.6635
2019-04-25T07:42:20.343Z,71.7769
2019-04-25T07:43:23.439Z,69.9672
2019-04-25T07:44:38.765Z,69.3584
2019-04-25T07:45:35.056Z,69.7398
2019-04-25T07:46:39.983Z,69.0837
2019-04-25T07:47:44.101Z,70.3243
2019-04-25T07:48:46.318Z,71.0674
2019-04-25T07:49:49.364Z,69.1340
2019-04-25T07:50:53.639Z,69.2317
2019-04-25T07:51:57.326Z,68.7724
2019-04-25T07:53:00.309Z,68.6671
2019-04-25T07:54:04.528Z,68.8502
2019-04-25T07:55:07.319Z,68.9418
2019-04-25T07:56:10.358Z,68.9113
2019-04-25T07:57:13.588Z,68.7785
2019-04-25T07:58:17.327Z,67.9362
2019-04-25T07:59:20.317Z,68.0323
2019-04-25T08:00:24.032Z,67.7516
2019-04-25T08:01:28.115Z,66.0502
2019-04-25T08:02:33.832Z,65.4810
2019-04-25T08:03:37.313Z,67.3213
2019-04-25T08:04:40.310Z,67.1153
2019-04-25T08:05:43.992Z,67.0924
2019-04-25T08:06:47.337Z,66.3890
2019-04-25T08:07:49.389Z,66.1357
2019-04-25T08:08:52.297Z,66.0624
2019-04-25T08:09:55.314Z,65.0416
2019-04-25T08:10:58.323Z,65.1530
2019-04-25T08:12:01.303Z,65.7893
2019-04-25T08:13:04.949Z,66.0868
2019-04-25T08:14:08.291Z,62.8672
2019-04-25T08:15:11.395Z,62.8168
2019-04-25T08:16:14.614Z,63.5508
2019-04-25T08:17:18.317Z,63.5782
2019-04-25T08:18:23.356Z,61.9242
2019-04-25T08:19:28.729Z,61.4847
2019-04-25T08:20:34.042Z,61.7609
2019-04-25T08:21:37.289Z,60.7523
2019-04-25T08:22:51.965Z,60.7172
2019-04-25T08:23:48.313Z,61.1429
2019-04-25T08:24:51.317Z,61.9654
2019-04-25T08:25:54.479Z,60.4150
2019-04-25T08:26:57.357Z,61.9013
2019-04-25T08:28:00.310Z,63.8254
2019-04-25T08:29:03.653Z,64.9134
2019-04-25T08:30:07.313Z,65.7023
2019-04-25T08:31:10.332Z,66.0578
2019-04-25T08:32:14.245Z,65.8518
2019-04-25T08:33:17.314Z,65.7755
2019-04-25T08:34:20.322Z,65.5085
2019-04-25T08:35:24.100Z,65.5283
2019-04-25T08:36:27.355Z,65.4536
2019-04-25T08:37:30.449Z,65.7389
2019-04-25T08:38:34.713Z,65.6931
2019-04-25T08:39:38.890Z,64.7944
2019-04-25T08:40:44.078Z,62.6398
2019-04-25T08:41:47.308Z,63.1479
2019-04-25T08:42:50.338Z,62.8260
2019-04-25T08:43:54.484Z,61.9196
2019-04-25T08:44:58.310Z,63.2151
2019-04-25T08:46:01.325Z,62.1637
2019-04-25T08:47:04.527Z,59.9481
2019-04-25T08:48:06.378Z,60.8682
2019-04-25T08:49:09.315Z,61.7655
2019-04-25T08:50:26.395Z,61.3611
2019-04-25T08:51:20.346Z,61.3199
2019-04-25T08:52:24.338Z,61.3382
2019-04-25T08:53:27.314Z,60.3586
2019-04-25T08:54:31.200Z,59.9023
2019-04-25T08:55:36.244Z,59.8596
2019-04-25T08:56:40.308Z,59.5850
2019-04-25T08:57:44.009Z,59.2004
2019-04-25T08:58:47.332Z,55.9411
2019-04-25T08:59:52.672Z,56.0662
2019-04-25T09:01:00.928Z,56.3897
2019-04-25T09:02:04.356Z,56.0876
2019-04-25T09:03:07.321Z,56.8841
2019-04-25T09:04:10.286Z,55.6023
2019-04-25T09:05:14.463Z,55.2789
2019-04-25T09:06:19.382Z,54.4686
2019-04-25T09:07:23.564Z,53.6660
2019-04-25T09:08:26.293Z,53.4646
2019-04-25T09:09:32.490Z,52.9488
2019-04-25T09:10:39.977Z,52.7825
2019-04-25T09:11:45.921Z,52.0745
2019-04-25T09:12:50.293Z,51.7037
2019-04-25T09:13:53.714Z,50.8202
2019-04-25T09:14:57.304Z,49.5567
2019-04-25T09:16:00.333Z,48.7404
2019-04-25T09:17:03.337Z,47.9255
2019-04-25T09:18:06.329Z,47.3091
2019-04-25T09:19:09.347Z,46.7002
2019-04-25T09:20:13.776Z,44.7349
2019-04-25T09:21:17.341Z,44.4434
2019-04-25T09:22:20.310Z,44.5487
2019-04-25T09:23:23.698Z,43.5645
2019-04-25T09:24:26.310Z,43.0793
2019-04-25T09:25:29.315Z,42.1576
2019-04-25T09:26:33.960Z,43.5050
2019-04-25T09:27:40.364Z,41.8463
2019-04-25T09:28:46.307Z,42.8443
2019-04-25T09:29:50.315Z,41.6724
2019-04-25T09:30:54.018Z,42.5208
2019-04-25T09:31:57.312Z,43.4867
2019-04-25T09:33:00.370Z,42.4430
2019-04-25T09:34:04.077Z,42.6444
2019-04-25T09:35:07.284Z,40.9125
2019-04-25T09:36:10.366Z,35.2728
2019-04-25T09:37:14.251Z,36.1364
2019-04-25T09:38:17.374Z,33.8491
2019-04-25T09:39:20.294Z,35.8083
2019-04-25T09:40:23.966Z,35.9457
2019-04-25T09:41:27.318Z,39.1867
2019-04-25T09:42:30.355Z,38.9914
2019-04-25T09:43:33.563Z,39.3378
2019-04-25T09:44:38.450Z,39.7009
2019-04-25T09:45:43.924Z,40.5341
2019-04-25T09:46:47.800Z,39.7879
2019-04-25T09:47:51.331Z,38.5870
2019-04-25T09:48:54.329Z,39.0677
2019-04-25T09:49:57.351Z,31.2078
2019-04-25T09:51:00.315Z,31.9570
2019-04-25T09:52:04.396Z,33.8582
2019-04-25T09:53:07.340Z,31.6091
2019-04-25T09:54:10.318Z,28.9647
2019-04-25T09:55:13.258Z,30.0847
2019-04-25T09:56:16.338Z,29.0776
2019-04-25T09:57:19.321Z,27.6463
2019-04-25T09:58:23.743Z,29.1829
2019-04-25T09:59:29.983Z,30.2235
2019-04-25T10:00:33.483Z,28.2734
2019-04-25T10:01:36.542Z,30.3777
2019-04-25T10:02:40.215Z,28.6564
2019-04-25T10:03:44.303Z,28.3040
2019-04-25T10:04:48.289Z,30.8690
2019-04-25T10:05:51.339Z,28.4153
2019-04-25T10:06:54.263Z,28.2032
2019-04-25T10:07:57.324Z,27.9606
2019-04-25T10:09:00.307Z,27.3945
2019-04-25T10:10:03.737Z,28.1727
2019-04-25T10:11:07.300Z,28.6656
2019-04-25T10:12:10.296Z,27.2465
2019-04-25T10:13:13.308Z,28.0888
2019-04-25T10:14:16.325Z,24.7074
2019-04-25T10:15:19.327Z,26.3905
2019-04-25T10:16:22.322Z,28.2857
2019-04-25T10:17:25.300Z,26.0563
2019-04-25T10:18:28.340Z,24.8173
2019-04-25T10:19:31.332Z,28.3909
2019-04-25T10:20:34.355Z,24.9729
2019-04-25T10:21:38.035Z,24.2710
2019-04-25T10:22:42.275Z,24.4083
2019-04-25T10:23:46.836Z,24.2023
2019-04-25T10:24:59.890Z,23.3249
2019-04-25T10:25:58.319Z,23.8727
2019-04-25T10:27:01.326Z,22.8794
2019-04-25T10:28:04.425Z,22.5788
2019-04-25T10:29:07.382Z,22.2934
2019-04-25T10:30:17.646Z,23.7552
2019-04-25T10:31:18.324Z,24.2298
2019-04-25T10:32:21.338Z,24.5609
2019-04-25T10:33:24.359Z,25.2827
2019-04-25T10:34:27.364Z,22.1759
2019-04-25T10:35:30.340Z,23.3097
2019-04-25T10:36:33.707Z,22.0096
2019-04-25T10:37:36.309Z,23.5065
2019-04-25T10:38:40.262Z,23.9597
2019-04-25T10:39:43.831Z,22.7237
2019-04-25T10:40:48.328Z,23.1876
2019-04-25T10:41:51.327Z,23.4760
2019-04-25T10:42:54.327Z,23.4882
2019-04-25T10:43:57.314Z,25.3239
2019-04-25T10:45:00.338Z,24.6525
2019-04-25T10:46:03.745Z,23.0640
2019-04-25T10:47:08.285Z,23.7964
2019-04-25T10:48:11.272Z,23.1327
2019-04-25T10:49:14.625Z,22.3346
2019-04-25T10:50:17.298Z,22.3499
2019-04-25T10:51:20.323Z,22.6978
2019-04-25T10:52:23.455Z,23.1952
2019-04-25T10:53:26.315Z,24.1718
2019-04-25T10:54:29.346Z,24.8631
2019-04-25T10:55:32.345Z,22.5010
2019-04-25T10:56:35.314Z,24.5960
2019-04-25T10:57:38.348Z,24.0436
2019-04-25T10:58:41.568Z,23.8193
2019-04-25T10:59:56.033Z,22.8260
2019-04-25T11:00:52.946Z,22.6886
2019-04-25T11:01:56.348Z,23.4989
2019-04-25T11:02:59.269Z,23.7446
2019-04-25T11:04:02.349Z,22.6658
2019-04-25T11:05:04.399Z,24.8585
2019-04-25T11:06:07.328Z,23.3982
2019-04-25T11:07:10.311Z,28.2185
2019-04-25T11:08:13.762Z,22.9908
2019-04-25T11:09:17.353Z,22.4231
2019-04-25T11:10:20.369Z,23.7720
2019-04-25T11:11:24.131Z,22.6139
2019-04-25T11:12:27.306Z,25.3880
2019-04-25T11:13:30.326Z,22.3224
2019-04-25T11:14:34.259Z,23.4241
2019-04-25T11:15:37.338Z,23.1373
2019-04-25T11:16:40.335Z,24.8615
2019-04-25T11:17:46.513Z,23.9231
2019-04-25T11:18:49.626Z,23.9918
2019-04-25T11:19:54.259Z,23.4806
2019-04-25T11:20:59.194Z,23.7919
2019-04-25T11:22:03.897Z,23.1907
2019-04-25T11:23:07.333Z,23.8285
2019-04-25T11:24:10.305Z,23.6912
2019-04-25T11:25:14.926Z,22.6505
2019-04-25T11:26:18.331Z,22.7237
2019-04-25T11:27:21.328Z,23.9246
2019-04-25T11:28:24.341Z,23.0182
2019-04-25T11:29:27.300Z,22.7878
2019-04-25T11:30:30.352Z,22.9206
2019-04-25T11:31:33.759Z,22.6154
2019-04-25T11:32:37.315Z,22.7741
2019-04-25T11:33:41.384Z,23.5569
2019-04-25T11:34:46.072Z,22.2614
2019-04-25T11:35:50.320Z,22.8931
2019-04-25T11:36:53.347Z,27.5898
2019-04-25T11:37:56.901Z,22.9068
2019-04-25T11:39:00.299Z,23.1403
2019-04-25T11:40:04.286Z,23.5477
2019-04-25T11:41:06.318Z,23.3509
2019-04-25T11:42:09.315Z,24.7578
2019-04-25T11:43:12.317Z,23.7140
2019-04-25T11:44:15.334Z,24.7303
2019-04-25T11:45:18.297Z,23.8697
2019-04-25T11:46:21.322Z,23.6439
2019-04-25T11:47:24.386Z,24.9027
2019-04-25T11:48:27.288Z,24.2222
2019-04-25T11:49:30.309Z,23.0228
2019-04-25T11:50:33.307Z,23.9475
2019-04-25T11:51:36.353Z,24.9821
2019-04-25T11:52:39.354Z,24.0482
2019-04-25T11:53:44.025Z,23.5981
2019-04-25T11:54:48.296Z,24.3046
2019-04-25T11:55:51.469Z,23.8422
2019-04-25T11:56:56.440Z,23.6301
2019-04-25T11:57:59.305Z,24.2435
2019-04-25T11:59:02.340Z,24.3580
2019-04-25T12:00:05.271Z,23.6027
2019-04-25T12:01:08.329Z,26.3584
2019-04-25T12:02:11.320Z,24.4678
2019-04-25T12:03:14.324Z,24.4648
2019-04-25T12:04:17.356Z,24.8631
2019-04-25T12:05:20.334Z,26.2135
2019-04-25T12:06:24.321Z,25.2522
2019-04-25T12:07:27.327Z,23.8651
2019-04-25T12:08:30.325Z,24.9592
2019-04-25T12:09:33.646Z,24.7242
2019-04-25T12:10:36.392Z,25.1972
2019-04-25T12:11:39.333Z,25.7176
2019-04-25T12:12:44.239Z,23.9918
2019-04-25T12:13:49.328Z,24.5426
2019-04-25T12:14:54.021Z,24.5151
2019-04-25T12:15:58.529Z,23.7324
2019-04-25T12:17:01.364Z,23.9872
2019-04-25T12:18:04.689Z,25.0629
2019-04-25T12:19:07.327Z,23.9200
2019-04-25T12:20:10.344Z,23.9521
2019-04-25T12:21:13.672Z,24.1657
2019-04-25T12:22:17.313Z,24.0742
2019-04-25T12:23:20.313Z,27.2023
2019-04-25T12:24:23.905Z,26.0655
2019-04-25T12:25:27.339Z,26.4286
2019-04-25T12:26:30.394Z,25.5344
2019-04-25T12:27:33.327Z,23.9979
2019-04-25T12:28:36.340Z,24.1764
2019-04-25T12:29:39.319Z,25.4124
2019-04-25T12:30:43.793Z,24.1337
2019-04-25T12:31:49.213Z,25.8289
2019-04-25T12:32:53.727Z,25.1057
2019-04-25T12:33:57.639Z,25.2415
2019-04-25T12:35:01.351Z,26.8528
2019-04-25T12:36:04.325Z,24.6479
2019-04-25T12:37:07.327Z,25.3513
2019-04-25T12:38:10.361Z,25.1972
2019-04-25T12:39:14.065Z,24.3549
2019-04-25T12:40:17.298Z,25.9922
2019-04-25T12:41:20.311Z,24.6342
2019-04-25T12:42:24.170Z,24.6845
2019-04-25T12:43:27.344Z,24.9866
2019-04-25T12:44:30.346Z,27.8508
2019-04-25T12:45:34.292Z,26.4042
2019-04-25T12:46:37.325Z,25.5360
2019-04-25T12:47:39.390Z,25.6641
2019-04-25T12:48:43.186Z,25.9693
2019-04-25T12:49:46.754Z,24.9714